Time;durP1;ratioP1;P1;durP2;ratioP2;P2;SDS_P1;SDS_P2;PMS_P1;PMS_P2;Temp;Humidity;BMP_temperature;BMP_pressure;BME280_temperature;BME280_humidity;BME280_pressure;Samples;Min_cycle;Max_cycle;Signal;HPM_P1;HPM_P2
2023/01/09 00:00:36;;;;;;;4.93;4.43;;;7.30;99.90;;;;;;5022183;28;20541;-70
2023/01/09 00:03:03;;;;;;;5.10;4.27;;;7.30;99.90;;;;;;5015049;28;20459;-70
2023/01/09 00:05:29;;;;;;;5.53;4.50;;;7.30;99.90;;;;;;5028730;28;20719;-70
2023/01/09 00:07:56;;;;;;;6.20;5.60;;;7.30;99.90;;;;;;5026441;28;20523;-70
2023/01/09 00:10:23;;;;;;;10.00;5.40;;;7.30;99.90;;;;;;5021397;28;20474;-70
2023/01/09 00:12:49;;;;;;;6.47;4.60;;;7.30;99.90;;;;;;5021528;28;20509;-70
2023/01/09 00:15:17;;;;;;;6.40;5.70;;;7.30;99.90;;;;;;5020352;28;20488;-71
2023/01/09 00:17:46;;;;;;;10.40;5.43;;;7.30;99.90;;;;;;5028283;28;20504;-70
2023/01/09 00:20:14;;;;;;;5.30;4.80;;;7.30;99.90;;;;;;5024764;28;20527;-70
2023/01/09 00:22:40;;;;;;;6.63;5.90;;;7.30;99.90;;;;;;5022208;28;20462;-71
2023/01/09 00:25:08;;;;;;;6.03;5.43;;;7.30;99.90;;;;;;5016302;28;20486;-71
2023/01/09 00:27:35;;;;;;;6.93;5.40;;;7.30;99.90;;;;;;5014371;28;20504;-70
2023/01/09 00:30:02;;;;;;;6.70;5.50;;;7.30;99.90;;;;;;5028869;28;20536;-71
2023/01/09 00:32:29;;;;;;;10.00;6.47;;;7.30;99.90;;;;;;5020670;28;20462;-70
2023/01/09 00:34:57;;;;;;;8.17;5.70;;;7.30;99.90;;;;;;5017988;28;20939;-70
2023/01/09 00:37:24;;;;;;;9.30;7.00;;;7.30;99.90;;;;;;5017383;28;20462;-70
2023/01/09 00:39:50;;;;;;;9.30;6.00;;;7.30;99.90;;;;;;5027496;28;20997;-70
2023/01/09 00:42:22;;;;;;;10.00;7.23;;;7.30;99.90;;;;;;5025221;28;20466;-70
2023/01/09 00:44:52;;;;;;;6.63;6.00;;;7.30;99.90;;;;;;5022378;28;20483;-70
2023/01/09 00:47:22;;;;;;;6.87;6.17;;;7.30;99.90;;;;;;5030142;28;20453;-71
2023/01/09 00:49:50;;;;;;;9.27;6.80;;;7.30;99.90;;;;;;5028947;28;20473;-70
2023/01/09 00:52:19;;;;;;;6.70;5.83;;;7.30;99.90;;;;;;5031407;28;20462;-70
2023/01/09 00:54:46;;;;;;;6.70;5.73;;;7.30;99.90;;;;;;5025448;28;20458;-71
2023/01/09 00:57:14;;;;;;;9.00;6.77;;;7.30;99.90;;;;;;5022854;28;20463;-70
2023/01/09 00:59:42;;;;;;;6.83;6.13;;;7.30;99.90;;;;;;5027634;28;20599;-70
2023/01/09 01:02:09;;;;;;;6.10;5.50;;;7.40;99.90;;;;;;5033428;28;20453;-70
2023/01/09 01:07:39;;;;;;;5.57;5.03;;;7.40;99.90;;;;;;5023439;28;20461;-71
2023/01/09 01:10:09;;;;;;;4.10;3.77;;;7.40;99.90;;;;;;5024188;28;20561;-71
2023/01/09 01:12:36;;;;;;;3.77;3.47;;;7.50;99.90;;;;;;5020713;28;20503;-71
2023/01/09 01:15:04;;;;;;;4.30;2.90;;;7.50;99.90;;;;;;5031994;28;20503;-71
2023/01/09 01:17:33;;;;;;;3.30;3.10;;;7.60;99.90;;;;;;5027828;28;20453;-71
2023/01/09 01:19:59;;;;;;;3.60;2.60;;;7.60;99.90;;;;;;5024422;28;20556;-71
2023/01/09 01:22:27;;;;;;;2.80;2.60;;;7.60;99.90;;;;;;5027223;28;20466;-72
2023/01/09 01:24:54;;;;;;;3.30;3.00;;;7.70;99.90;;;;;;5023997;28;20485;-71
2023/01/09 01:27:20;;;;;;;3.37;3.07;;;7.70;99.90;;;;;;5029359;28;20876;-71
2023/01/09 01:29:47;;;;;;;3.03;2.83;;;7.70;99.90;;;;;;5025856;28;20880;-71
2023/01/09 01:32:14;;;;;;;2.63;2.43;;;7.70;99.90;;;;;;5028710;28;20500;-71
2023/01/09 01:34:40;;;;;;;2.83;2.63;;;7.70;99.90;;;;;;5017669;28;20458;-71
2023/01/09 01:37:07;;;;;;;2.57;2.37;;;7.70;99.90;;;;;;5032961;28;20453;-71
2023/01/09 01:39:35;;;;;;;2.30;2.10;;;7.70;99.90;;;;;;5028123;28;20446;-71
2023/01/09 01:42:03;;;;;;;2.10;2.00;;;7.70;99.90;;;;;;5029227;28;20450;-71
2023/01/09 01:44:57;;;;;;;4.23;2.80;;;7.70;99.90;;;;;;5022134;28;20531;-71
2023/01/09 01:47:28;;;;;;;2.40;2.20;;;7.70;99.90;;;;;;5023715;28;20513;-71
2023/01/09 01:49:55;;;;;;;2.80;2.60;;;7.70;99.90;;;;;;5026056;28;20477;-71
2023/01/09 01:52:23;;;;;;;2.23;2.13;;;7.70;99.90;;;;;;5024057;28;20457;-71
2023/01/09 01:54:52;;;;;;;2.53;2.37;;;7.70;99.90;;;;;;5027232;28;20454;-71
2023/01/09 01:57:19;;;;;;;2.37;2.27;;;7.70;99.90;;;;;;5022927;28;20888;-71
2023/01/09 01:59:49;;;;;;;2.50;2.40;;;7.70;99.90;;;;;;5031922;28;20553;-71
2023/01/09 02:02:18;;;;;;;2.20;2.10;;;7.60;99.90;;;;;;5030773;28;20457;-71
2023/01/09 02:04:46;;;;;;;6.60;2.40;;;7.60;99.90;;;;;;5026692;28;20580;-71
2023/01/09 02:07:13;;;;;;;2.30;2.20;;;7.60;99.90;;;;;;5021823;28;20451;-71
2023/01/09 02:09:43;;;;;;;2.30;2.20;;;7.60;99.90;;;;;;5015417;28;20458;-71
2023/01/09 02:12:22;;;;;;;2.50;2.40;;;7.60;99.90;;;;;;5027564;28;20817;-71
2023/01/09 02:14:53;;;;;;;3.00;2.27;;;7.60;99.90;;;;;;5026601;28;20447;-71
2023/01/09 02:17:34;;;;;;;2.00;1.90;;;7.60;99.90;;;;;;5022538;28;20449;-71
2023/01/09 02:20:37;;;;;;;2.90;1.57;;;7.60;99.90;;;;;;5017044;28;20908;-71
2023/01/09 02:23:30;;;;;;;1.50;1.40;;;7.50;99.90;;;;;;5026995;28;20458;-71
2023/01/09 02:26:15;;;;;;;1.50;1.40;;;7.50;99.90;;;;;;5020138;28;20490;-71
2023/01/09 02:29:05;;;;;;;1.60;1.40;;;7.40;99.90;;;;;;5027678;28;20462;-71
2023/01/09 02:31:40;;;;;;;1.60;1.40;;;7.40;99.90;;;;;;5022684;28;20473;-71
2023/01/09 02:34:14;;;;;;;1.40;1.30;;;7.40;99.90;;;;;;5023494;28;20503;-71
2023/01/09 02:36:46;;;;;;;1.80;1.40;;;7.40;99.90;;;;;;5025768;28;20447;-71
2023/01/09 02:39:23;;;;;;;1.20;1.00;;;7.30;99.90;;;;;;5020160;28;20517;-71
2023/01/09 02:41:55;;;;;;;1.40;1.30;;;7.30;99.90;;;;;;5017839;28;20984;-71
2023/01/09 02:44:23;;;;;;;1.30;1.20;;;7.30;99.90;;;;;;5016545;28;20465;-71
2023/01/09 02:47:02;;;;;;;3.30;1.23;;;7.30;99.90;;;;;;5021042;28;21070;-71
2023/01/09 02:49:29;;;;;;;1.30;1.20;;;7.30;99.90;;;;;;5024508;28;20457;-71
2023/01/09 02:52:07;;;;;;;1.30;1.20;;;7.20;99.90;;;;;;5019479;28;20451;-71
2023/01/09 02:54:48;;;;;;;1.30;1.20;;;7.20;99.90;;;;;;5025288;28;20463;-71
2023/01/09 02:57:27;;;;;;;1.10;1.00;;;7.20;99.90;;;;;;5028936;28;20458;-71
2023/01/09 03:00:08;;;;;;;1.30;1.20;;;7.20;99.90;;;;;;5026050;28;20467;-71
2023/01/09 03:02:46;;;;;;;1.50;1.27;;;7.20;99.90;;;;;;5022069;28;20454;-72
2023/01/09 03:05:22;;;;;;;1.33;1.23;;;7.20;99.90;;;;;;5016227;28;20825;-71
2023/01/09 03:07:56;;;;;;;1.57;1.10;;;7.20;99.90;;;;;;5017059;28;20456;-71
2023/01/09 03:10:30;;;;;;;2.10;0.80;;;7.20;99.90;;;;;;5022239;28;20474;-72
2023/01/09 03:12:58;;;;;;;2.60;1.30;;;7.10;99.90;;;;;;5021249;28;20515;-71
2023/01/09 03:15:28;;;;;;;1.10;1.00;;;7.10;99.90;;;;;;5024410;28;20453;-72
2023/01/09 03:17:57;;;;;;;2.70;1.10;;;7.10;99.90;;;;;;5023337;28;20450;-71
2023/01/09 03:20:27;;;;;;;1.03;0.93;;;7.10;99.90;;;;;;5025654;28;20997;-72
2023/01/09 03:22:55;;;;;;;1.00;0.90;;;7.10;99.90;;;;;;5027143;28;20461;-72
2023/01/09 03:25:22;;;;;;;1.37;1.27;;;7.10;99.90;;;;;;5025791;28;20485;-72
2023/01/09 03:27:52;;;;;;;1.40;1.30;;;7.10;99.90;;;;;;5017373;28;20455;-72
2023/01/09 03:30:19;;;;;;;1.13;1.03;;;7.00;99.90;;;;;;5022991;28;20610;-72
2023/01/09 03:32:45;;;;;;;1.20;1.10;;;7.00;99.90;;;;;;5029656;28;20447;-72
2023/01/09 03:35:13;;;;;;;1.23;1.13;;;7.00;99.90;;;;;;5026324;28;20450;-72
2023/01/09 03:37:40;;;;;;;1.00;0.90;;;7.00;99.90;;;;;;5020639;28;20455;-72
2023/01/09 03:40:08;;;;;;;3.07;1.00;;;7.00;99.90;;;;;;5021663;28;20478;-71
2023/01/09 03:42:34;;;;;;;1.10;1.00;;;6.90;99.90;;;;;;5014117;28;20455;-71
2023/01/09 03:45:01;;;;;;;1.10;1.00;;;6.90;99.90;;;;;;5027661;28;20485;-71
2023/01/09 03:47:28;;;;;;;1.43;0.90;;;6.90;99.90;;;;;;5023416;28;20879;-71
2023/01/09 03:49:54;;;;;;;1.00;0.80;;;6.90;99.90;;;;;;5023332;28;20478;-71
2023/01/09 03:52:22;;;;;;;2.00;0.90;;;6.90;99.90;;;;;;5014981;28;20753;-71
2023/01/09 03:54:49;;;;;;;1.10;1.00;;;6.90;99.90;;;;;;5021807;28;20461;-72
2023/01/09 03:57:15;;;;;;;1.00;0.90;;;6.90;99.90;;;;;;5027114;28;20957;-71
2023/01/09 03:59:42;;;;;;;1.00;0.90;;;6.90;99.90;;;;;;5023574;28;20458;-72
2023/01/09 04:02:09;;;;;;;1.00;0.90;;;7.00;99.90;;;;;;5017386;28;20868;-71
2023/01/09 04:04:35;;;;;;;1.20;1.10;;;7.00;99.90;;;;;;5014097;28;20521;-71
2023/01/09 04:07:02;;;;;;;1.20;1.10;;;7.00;99.90;;;;;;5022812;28;20539;-71
2023/01/09 04:09:30;;;;;;;0.90;0.80;;;7.00;99.90;;;;;;5026430;28;20978;-71
2023/01/09 04:11:56;;;;;;;2.13;1.00;;;6.90;99.90;;;;;;5019353;28;20459;-71
2023/01/09 04:14:23;;;;;;;1.20;1.00;;;6.90;99.90;;;;;;5023114;28;20880;-71
2023/01/09 04:16:50;;;;;;;1.30;1.10;;;7.00;99.90;;;;;;5017075;28;20446;-71
2023/01/09 04:19:16;;;;;;;1.10;1.00;;;7.00;99.90;;;;;;5028324;28;20535;-72
2023/01/09 04:21:43;;;;;;;2.13;1.10;;;7.00;99.90;;;;;;5023506;28;20545;-72
2023/01/09 04:24:09;;;;;;;1.30;1.20;;;7.00;99.90;;;;;;5018985;28;20593;-71
2023/01/09 04:26:37;;;;;;;1.83;1.20;;;6.90;99.90;;;;;;5014632;28;20486;-71
2023/01/09 04:29:04;;;;;;;1.30;1.20;;;6.90;99.90;;;;;;5024796;28;20872;-71
2023/01/09 04:31:31;;;;;;;1.10;1.00;;;6.90;99.90;;;;;;5024734;28;20470;-71
2023/01/09 04:33:57;;;;;;;1.17;1.07;;;6.90;99.90;;;;;;5019999;28;20455;-71
2023/01/09 04:36:24;;;;;;;1.10;1.00;;;6.90;99.90;;;;;;5013830;28;20588;-71
2023/01/09 04:38:50;;;;;;;1.10;1.00;;;6.90;99.90;;;;;;5023948;28;20458;-71
2023/01/09 04:43:59;;;;;;;1.20;1.03;;;6.90;99.90;;;;;;5023734;28;20518;-71
2023/01/09 04:46:25;;;;;;;1.17;1.03;;;6.90;99.90;;;;;;5019066;28;20568;-71
2023/01/09 04:48:52;;;;;;;1.20;1.10;;;6.90;99.90;;;;;;5016993;28;20465;-71
2023/01/09 04:51:19;;;;;;;1.10;1.00;;;6.80;99.90;;;;;;5029104;28;21041;-71
2023/01/09 04:53:45;;;;;;;1.30;1.20;;;6.80;99.90;;;;;;5023534;28;20458;-71
2023/01/09 04:56:12;;;;;;;1.10;1.00;;;6.80;99.90;;;;;;5021463;28;20935;-71
2023/01/09 04:58:38;;;;;;;1.43;1.10;;;6.80;99.90;;;;;;5017059;28;20528;-73
2023/01/09 05:01:06;;;;;;;2.07;1.00;;;6.80;99.90;;;;;;5014197;28;21054;-71
2023/01/09 05:03:33;;;;;;;3.00;1.00;;;6.70;99.90;;;;;;5021864;28;20945;-71
2023/01/09 05:05:59;;;;;;;1.20;1.07;;;6.70;99.90;;;;;;5024849;28;20486;-71
2023/01/09 05:08:26;;;;;;;1.30;0.90;;;6.60;99.90;;;;;;5020199;28;20508;-71
2023/01/09 05:10:53;;;;;;;1.37;1.10;;;6.60;99.90;;;;;;5014450;28;20475;-71
2023/01/09 05:13:19;;;;;;;1.30;1.00;;;6.60;99.90;;;;;;5027118;28;20458;-71
2023/01/09 05:15:46;;;;;;;1.27;1.00;;;6.70;99.90;;;;;;5023609;28;20610;-71
2023/01/09 05:18:14;;;;;;;2.80;1.13;;;6.70;99.90;;;;;;5017731;28;20447;-71
2023/01/09 05:20:40;;;;;;;1.27;1.17;;;6.70;99.90;;;;;;5024194;28;21050;-71
2023/01/09 05:23:07;;;;;;;1.20;1.10;;;6.70;99.90;;;;;;5019147;28;20451;-72
2023/01/09 05:25:34;;;;;;;1.07;0.97;;;6.70;99.90;;;;;;5027884;28;20486;-72
2023/01/09 05:28:00;;;;;;;1.73;1.03;;;6.60;99.90;;;;;;5025192;28;20462;-72
2023/01/09 05:30:27;;;;;;;1.93;1.00;;;6.60;99.90;;;;;;5026486;28;20981;-72
2023/01/09 05:32:53;;;;;;;1.23;1.13;;;6.60;99.90;;;;;;5021868;28;20454;-72
2023/01/09 05:35:21;;;;;;;1.10;1.00;;;6.60;99.90;;;;;;5025507;28;20510;-72
2023/01/09 05:37:48;;;;;;;2.60;1.20;;;6.60;99.90;;;;;;5028857;28;20455;-72
2023/01/09 05:40:15;;;;;;;1.67;1.10;;;6.50;99.90;;;;;;5026785;28;20532;-72
2023/01/09 05:42:42;;;;;;;1.97;1.10;;;6.50;99.90;;;;;;5020833;28;20453;-72
2023/01/09 05:45:10;;;;;;;1.10;1.00;;;6.50;99.90;;;;;;5026957;28;21011;-72
2023/01/09 05:47:37;;;;;;;1.20;1.10;;;6.50;99.90;;;;;;5032156;28;20489;-72
2023/01/09 05:50:04;;;;;;;1.90;1.30;;;6.60;99.90;;;;;;5029171;28;20475;-72
2023/01/09 05:52:32;;;;;;;1.70;1.40;;;6.50;99.90;;;;;;5024881;28;20449;-73
2023/01/09 05:54:59;;;;;;;1.40;1.10;;;6.50;99.90;;;;;;5019776;28;20877;-72
2023/01/09 05:57:27;;;;;;;4.37;1.30;;;6.50;99.90;;;;;;5017048;28;20458;-72
2023/01/09 05:59:54;;;;;;;1.20;1.10;;;6.50;99.90;;;;;;5031243;28;20474;-72
2023/01/09 06:02:20;;;;;;;1.37;1.23;;;6.50;99.90;;;;;;5030155;28;20512;-72
2023/01/09 06:04:47;;;;;;;1.60;1.23;;;6.50;99.90;;;;;;5021913;28;20514;-71
2023/01/09 06:07:14;;;;;;;1.47;1.33;;;6.50;99.90;;;;;;5016532;28;20479;-72
2023/01/09 06:09:42;;;;;;;1.53;1.27;;;6.50;99.90;;;;;;5017413;28;20465;-72
2023/01/09 06:12:09;;;;;;;1.53;1.20;;;6.40;99.90;;;;;;5029133;28;20458;-72
2023/01/09 06:14:35;;;;;;;2.60;1.33;;;6.40;99.90;;;;;;5025605;28;20512;-72
2023/01/09 06:17:02;;;;;;;1.57;1.27;;;6.40;99.90;;;;;;5022706;28;20454;-72
2023/01/09 06:19:29;;;;;;;1.87;1.10;;;6.30;99.90;;;;;;5017202;28;20470;-70
2023/01/09 06:21:56;;;;;;;1.30;1.10;;;6.30;99.90;;;;;;5023862;28;20455;-71
2023/01/09 06:24:23;;;;;;;1.27;1.17;;;6.30;99.90;;;;;;5027483;28;20950;-70
2023/01/09 06:26:51;;;;;;;1.40;1.30;;;6.30;99.90;;;;;;5020869;28;20490;-70
2023/01/09 06:29:18;;;;;;;1.40;1.30;;;6.20;99.90;;;;;;5017530;28;20543;-70
2023/01/09 06:31:44;;;;;;;2.50;1.40;;;6.20;99.90;;;;;;5019892;28;20482;-71
2023/01/09 06:34:12;;;;;;;2.67;1.77;;;6.20;99.90;;;;;;5023899;28;20755;-70
2023/01/09 06:36:38;;;;;;;1.40;1.30;;;6.10;99.90;;;;;;5025034;28;20457;-70
2023/01/09 06:39:05;;;;;;;2.20;1.30;;;6.00;99.90;;;;;;5021960;28;20459;-71
2023/01/09 06:41:31;;;;;;;1.93;1.30;;;5.90;99.90;;;;;;5018199;28;20482;-70
2023/01/09 06:43:59;;;;;;;2.73;1.47;;;5.80;99.90;;;;;;5031812;28;20536;-70
2023/01/09 06:46:26;;;;;;;4.70;1.63;;;5.80;99.90;;;;;;5028239;28;20481;-70
2023/01/09 06:48:52;;;;;;;2.30;2.10;;;5.80;99.90;;;;;;5022645;28;21030;-70
2023/01/09 06:51:19;;;;;;;3.03;2.20;;;5.80;99.90;;;;;;5024995;28;20544;-70
2023/01/09 06:53:46;;;;;;;2.70;2.23;;;5.80;99.90;;;;;;5022158;28;20481;-71
2023/01/09 06:56:12;;;;;;;1.90;1.60;;;5.80;99.90;;;;;;5013789;28;20509;-70
2023/01/09 06:58:39;;;;;;;5.33;1.50;;;5.80;99.90;;;;;;5026727;28;20466;-70
2023/01/09 07:01:08;;;;;;;2.53;1.67;;;5.70;99.90;;;;;;5026785;28;20474;-70
2023/01/09 07:03:34;;;;;;;1.53;1.27;;;5.80;99.90;;;;;;5025913;28;20476;-71
2023/01/09 07:06:01;;;;;;;2.90;1.50;;;5.80;99.90;;;;;;5017476;28;20869;-70
2023/01/09 07:08:27;;;;;;;4.07;1.50;;;5.80;99.90;;;;;;5021367;28;20508;-70
2023/01/09 07:10:54;;;;;;;1.43;1.33;;;5.80;99.90;;;;;;5022744;28;20509;-70
2023/01/09 07:13:21;;;;;;;3.73;1.80;;;5.80;99.90;;;;;;5026718;28;20528;-71
2023/01/09 07:15:48;;;;;;;2.43;1.60;;;5.80;99.90;;;;;;5024646;28;20466;-71
2023/01/09 07:18:16;;;;;;;2.57;1.60;;;5.90;99.90;;;;;;5020728;28;20465;-71
2023/01/09 07:20:43;;;;;;;3.17;1.87;;;6.00;99.90;;;;;;5019858;28;20570;-69
2023/01/09 07:23:12;;;;;;;2.00;1.57;;;6.00;99.90;;;;;;5020100;28;21003;-70
2023/01/09 07:25:39;;;;;;;5.27;2.00;;;6.00;99.90;;;;;;5020141;28;20453;-70
2023/01/09 07:28:05;;;;;;;2.03;1.30;;;6.10;99.90;;;;;;5025512;28;20497;-70
2023/01/09 07:30:32;;;;;;;3.57;1.73;;;6.10;99.90;;;;;;5015075;28;20475;-70
2023/01/09 07:32:59;;;;;;;1.80;1.60;;;6.10;99.90;;;;;;5014592;28;20447;-70
2023/01/09 07:35:27;;;;;;;4.67;1.73;;;6.10;99.90;;;;;;5024690;28;20450;-71
2023/01/09 07:37:54;;;;;;;2.87;2.10;;;6.10;99.90;;;;;;5023617;28;20447;-70
2023/01/09 07:40:21;;;;;;;4.40;2.10;;;6.10;99.90;;;;;;5024084;28;20538;-71
2023/01/09 07:42:48;;;;;;;4.30;1.77;;;6.10;99.90;;;;;;5025541;28;20465;-70
2023/01/09 07:45:14;;;;;;;3.73;1.63;;;6.20;99.90;;;;;;5027016;28;20442;-72
2023/01/09 07:47:42;;;;;;;2.07;1.53;;;6.20;99.90;;;;;;5026470;28;20493;-70
2023/01/09 07:50:10;;;;;;;6.20;1.90;;;6.20;99.90;;;;;;5026369;28;20477;-71
2023/01/09 07:52:37;;;;;;;3.00;1.70;;;6.20;99.90;;;;;;5025112;28;20523;-69
2023/01/09 07:55:05;;;;;;;2.43;1.63;;;6.20;99.90;;;;;;5026035;28;20503;-70
2023/01/09 07:57:32;;;;;;;3.23;1.50;;;6.30;99.90;;;;;;5026061;28;20450;-70
2023/01/09 07:59:59;;;;;;;3.13;1.70;;;6.30;99.90;;;;;;5026665;28;20466;-70
2023/01/09 08:02:26;;;;;;;4.17;1.80;;;6.30;99.90;;;;;;5026372;28;20539;-70
2023/01/09 08:04:53;;;;;;;2.80;1.40;;;6.30;99.90;;;;;;5026464;28;20480;-70
2023/01/09 08:07:20;;;;;;;2.43;1.30;;;6.40;99.90;;;;;;5026183;28;20485;-71
2023/01/09 08:09:48;;;;;;;1.60;1.47;;;6.40;99.90;;;;;;5025711;28;20461;-70
2023/01/09 08:12:14;;;;;;;3.37;1.60;;;6.40;99.90;;;;;;5026849;28;20454;-70
2023/01/09 08:14:41;;;;;;;5.90;1.80;;;6.50;99.90;;;;;;5026072;28;20449;-70
2023/01/09 08:17:10;;;;;;;2.00;1.63;;;6.50;99.90;;;;;;5025502;28;20484;-69
2023/01/09 08:19:37;;;;;;;2.40;1.47;;;6.50;99.90;;;;;;5025905;28;20481;-71
2023/01/09 08:22:03;;;;;;;1.43;1.33;;;6.50;99.90;;;;;;5026471;28;20450;-70
2023/01/09 08:24:31;;;;;;;2.13;1.40;;;6.50;99.90;;;;;;5026677;28;20512;-69
2023/01/09 08:26:59;;;;;;;4.60;1.63;;;6.50;99.90;;;;;;5026458;28;20482;-70
2023/01/09 08:29:26;;;;;;;1.63;1.53;;;6.60;99.90;;;;;;5026291;28;20969;-69
2023/01/09 08:31:52;;;;;;;1.60;1.47;;;6.60;99.90;;;;;;5026321;28;20470;-69
2023/01/09 08:34:19;;;;;;;1.50;1.40;;;6.60;99.90;;;;;;5026846;28;20454;-69
2023/01/09 08:36:46;;;;;;;9.13;1.70;;;6.60;99.90;;;;;;5025559;28;20532;-70
2023/01/09 08:39:12;;;;;;;8.13;1.40;;;6.60;99.90;;;;;;5026621;28;20454;-69
2023/01/09 08:47:08;;;;;;;1.57;1.47;;;6.60;99.90;;;;;;5025929;28;21067;-69
2023/01/09 08:49:37;;;;;;;4.40;1.60;;;6.60;99.90;;;;;;5025880;28;20458;-70
2023/01/09 08:52:05;;;;;;;1.50;1.40;;;6.70;99.90;;;;;;5026354;28;20504;-69
2023/01/09 08:54:32;;;;;;;1.83;1.43;;;6.70;99.90;;;;;;5026407;28;20457;-69
2023/01/09 08:56:58;;;;;;;1.40;1.20;;;6.70;99.90;;;;;;5026052;28;20961;-70
2023/01/09 08:59:26;;;;;;;1.57;1.47;;;6.70;99.90;;;;;;5026529;28;20544;-69
2023/01/09 09:01:53;;;;;;;10.63;1.70;;;6.70;99.90;;;;;;5025277;28;20477;-69
2023/01/09 09:04:20;;;;;;;1.57;1.40;;;6.70;99.90;;;;;;5026754;28;20488;-69
2023/01/09 09:06:46;;;;;;;2.20;1.43;;;6.80;99.90;;;;;;5030171;28;20496;-69
2023/01/09 09:09:13;;;;;;;1.87;1.50;;;6.80;99.90;;;;;;5030618;28;20534;-70
2023/01/09 09:11:40;;;;;;;2.57;1.53;;;6.90;99.90;;;;;;5030366;28;20489;-69
2023/01/09 09:16:49;;;;;;;4.17;1.50;;;7.00;99.90;;;;;;5028535;28;20472;-69
2023/01/09 09:19:15;;;;;;;1.60;1.50;;;7.00;99.90;;;;;;5029721;28;20465;-69
2023/01/09 09:21:42;;;;;;;1.90;1.30;;;7.00;99.90;;;;;;5029971;28;20474;-70
2023/01/09 09:24:08;;;;;;;2.43;1.40;;;7.00;99.90;;;;;;5029709;28;20450;-70
2023/01/09 09:26:35;;;;;;;3.10;1.70;;;7.00;99.90;;;;;;5029381;28;20456;-69
2023/01/09 09:29:02;;;;;;;2.10;1.70;;;7.00;99.90;;;;;;5029737;28;20461;-69
2023/01/09 09:31:28;;;;;;;2.27;1.60;;;7.20;99.90;;;;;;5027953;28;21867;-70
2023/01/09 09:33:57;;;;;;;2.23;1.50;;;7.40;99.90;;;;;;5027740;28;20446;-70
2023/01/09 09:36:24;;;;;;;1.43;1.33;;;7.70;99.90;;;;;;5029559;28;20969;-70
2023/01/09 09:38:50;;;;;;;1.40;1.30;;;8.00;99.90;;;;;;5029101;28;20465;-71
2023/01/09 09:44:46;;;;;;;4.00;1.43;;;8.70;99.90;;;;;;4990583;28;20497;-70
2023/01/09 09:47:21;;;;;;;5.10;2.63;;;9.10;99.90;;;;;;5028671;28;21089;-69
2023/01/09 09:49:59;;;;;;;3.43;1.40;;;8.90;99.90;;;;;;5028520;28;20860;-69
2023/01/09 09:52:34;;;;;;;4.23;2.53;;;8.60;99.90;;;;;;5029740;28;20449;-69
2023/01/09 09:55:04;;;;;;;1.50;1.40;;;8.20;99.90;;;;;;5029127;28;20453;-69
2023/01/09 09:57:36;;;;;;;1.97;1.50;;;8.10;99.90;;;;;;5028850;28;20499;-69
2023/01/09 10:00:05;;;;;;;2.40;1.47;;;8.10;99.90;;;;;;5026990;28;20551;-69
2023/01/09 10:02:42;;;;;;;1.37;1.27;;;8.10;99.90;;;;;;5028290;28;20449;-69
2023/01/09 10:05:16;;;;;;;2.47;1.70;;;8.10;99.90;;;;;;5027282;28;20449;-69
2023/01/09 10:07:48;;;;;;;1.90;1.70;;;8.10;99.90;;;;;;5027708;28;20481;-69
2023/01/09 10:10:22;;;;;;;1.97;1.33;;;8.10;99.90;;;;;;5026851;28;20845;-69
2023/01/09 10:12:54;;;;;;;9.83;1.80;;;8.20;99.90;;;;;;5028493;28;20465;-69
2023/01/09 10:15:29;;;;;;;1.77;1.60;;;8.20;99.90;;;;;;5028269;28;20894;-69
2023/01/09 10:18:10;;;;;;;1.50;1.40;;;8.30;99.90;;;;;;5029646;28;20579;-69
2023/01/09 10:20:50;;;;;;;1.70;1.30;;;8.30;99.90;;;;;;5028312;28;20465;-70
2023/01/09 10:23:40;;;;;;;2.43;1.30;;;8.20;99.90;;;;;;5027710;28;21012;-70
2023/01/09 10:26:13;;;;;;;2.20;1.70;;;8.30;99.90;;;;;;5029030;28;20442;-70
2023/01/09 10:28:57;;;;;;;1.77;1.67;;;8.40;99.90;;;;;;5027837;28;20482;-70
2023/01/09 10:31:32;;;;;;;1.77;1.40;;;8.60;99.90;;;;;;5028141;28;20485;-68
2023/01/09 10:34:11;;;;;;;2.53;1.63;;;8.60;99.90;;;;;;5027358;28;20457;-69
2023/01/09 10:37:00;;;;;;;2.43;1.63;;;8.60;99.90;;;;;;5022025;28;20445;-70
2023/01/09 10:39:35;;;;;;;1.50;1.40;;;8.50;99.90;;;;;;5024286;28;20520;-69
2023/01/09 10:42:10;;;;;;;3.27;1.50;;;8.30;99.90;;;;;;5024511;28;21216;-69
2023/01/09 10:44:42;;;;;;;1.50;1.13;;;8.20;99.90;;;;;;5025596;28;20452;-69
2023/01/09 10:47:16;;;;;;;1.40;1.30;;;8.10;99.90;;;;;;5024408;28;21035;-70
2023/01/09 10:49:45;;;;;;;2.00;1.30;;;8.10;99.90;;;;;;5024932;28;20453;-69
2023/01/09 10:52:16;;;;;;;1.40;1.30;;;8.10;99.90;;;;;;5024870;28;20450;-69
2023/01/09 10:54:55;;;;;;;1.70;1.20;;;8.10;99.90;;;;;;5025047;28;20469;-70
2023/01/09 10:57:38;;;;;;;2.17;1.47;;;8.10;99.90;;;;;;5024675;28;20503;-70
2023/01/09 11:00:06;;;;;;;1.33;1.23;;;8.20;99.90;;;;;;5023952;28;20540;-70
2023/01/09 11:02:35;;;;;;;1.50;1.40;;;8.40;99.90;;;;;;5022991;28;20446;-71
2023/01/09 11:05:01;;;;;;;2.80;1.37;;;8.50;99.90;;;;;;5024122;28;20470;-70
2023/01/09 11:07:34;;;;;;;1.93;1.30;;;8.80;99.90;;;;;;5024371;28;20489;-69
2023/01/09 11:10:02;;;;;;;1.20;1.10;;;9.00;99.90;;;;;;5022673;28;20469;-70
2023/01/09 11:12:31;;;;;;;2.83;1.90;;;9.10;99.90;;;;;;5023534;28;20457;-70
2023/01/09 11:15:27;;;;;;;2.03;1.83;;;9.00;99.90;;;;;;5022625;28;20505;-71
2023/01/09 11:17:56;;;;;;;1.37;1.27;;;9.00;99.90;;;;;;5025110;28;20457;-69
2023/01/09 11:20:25;;;;;;;1.50;1.40;;;9.00;99.90;;;;;;5024800;28;20482;-69
2023/01/09 11:22:55;;;;;;;1.80;1.70;;;9.30;99.90;;;;;;5024200;28;20442;-69
2023/01/09 11:25:23;;;;;;;1.40;1.30;;;9.60;99.90;;;;;;5023768;28;21865;-69
2023/01/09 11:28:04;;;;;;;1.40;1.30;;;9.90;99.90;;;;;;5026738;28;20521;-69
2023/01/09 11:30:35;;;;;;;2.20;1.30;;;10.10;99.90;;;;;;5027333;28;20480;-69
2023/01/09 11:33:14;;;;;;;1.67;1.20;;;10.00;99.90;;;;;;5027770;28;20465;-69
2023/01/09 11:35:54;;;;;;;1.73;1.30;;;10.10;99.90;;;;;;5027219;28;20458;-69
2023/01/09 11:38:22;;;;;;;35.30;1.93;;;9.90;99.90;;;;;;5027679;28;20535;-70
2023/01/09 11:40:50;;;;;;;1.30;1.20;;;9.60;99.90;;;;;;5027129;28;20477;-69
2023/01/09 11:43:21;;;;;;;3.47;1.40;;;9.20;99.90;;;;;;5026911;28;20470;-69
2023/01/09 11:45:51;;;;;;;1.60;1.50;;;9.00;99.90;;;;;;5026501;28;20453;-69
2023/01/09 11:48:28;;;;;;;1.30;1.20;;;8.90;99.90;;;;;;5027413;28;20490;-69
2023/01/09 11:50:56;;;;;;;1.40;1.30;;;8.70;99.90;;;;;;5026409;28;20481;-70
2023/01/09 11:53:25;;;;;;;1.67;1.27;;;8.60;99.90;;;;;;5027443;28;20454;-70
2023/01/09 11:56:00;;;;;;;1.50;1.30;;;8.50;99.90;;;;;;5026393;28;20510;-70
2023/01/09 11:58:31;;;;;;;1.33;1.23;;;8.50;99.90;;;;;;5027054;28;20592;-70
2023/01/09 12:01:05;;;;;;;1.73;1.43;;;8.40;99.90;;;;;;5026734;28;20474;-70
2023/01/09 12:04:02;;;;;;;1.47;1.37;;;8.40;99.90;;;;;;5027323;28;20554;-69
2023/01/09 12:06:33;;;;;;;1.87;1.40;;;8.40;99.90;;;;;;5026074;28;20512;-69
2023/01/09 12:09:03;;;;;;;2.37;1.33;;;8.40;99.90;;;;;;5026174;28;21005;-70
2023/01/09 12:11:42;;;;;;;1.93;1.40;;;8.40;99.90;;;;;;5026818;28;20819;-70
2023/01/09 12:14:26;;;;;;;2.13;1.30;;;8.40;99.90;;;;;;5027304;28;20470;-70
2023/01/09 12:17:20;;;;;;;4.03;1.27;;;8.40;99.90;;;;;;5026689;28;20454;-70
2023/01/09 12:20:05;;;;;;;1.67;1.53;;;8.30;99.90;;;;;;5026474;28;20450;-70
2023/01/09 12:22:41;;;;;;;1.70;1.60;;;8.20;99.90;;;;;;5027081;28;20561;-69
2023/01/09 12:25:21;;;;;;;1.33;1.20;;;8.20;99.90;;;;;;5026268;28;20454;-70
2023/01/09 12:28:01;;;;;;;2.13;1.47;;;8.10;99.90;;;;;;5026566;28;20482;-70
2023/01/09 12:30:41;;;;;;;1.80;1.43;;;8.30;99.90;;;;;;5026332;28;20507;-70
2023/01/09 12:33:24;;;;;;;1.33;1.20;;;8.40;99.90;;;;;;5026532;28;20457;-70
2023/01/09 12:35:57;;;;;;;1.50;1.40;;;8.50;99.90;;;;;;5026475;28;20564;-70
2023/01/09 12:38:40;;;;;;;1.40;1.30;;;8.70;99.90;;;;;;5027742;28;20446;-70
2023/01/09 12:41:24;;;;;;;2.37;1.53;;;8.70;99.90;;;;;;5029201;28;20943;-70
2023/01/09 12:44:04;;;;;;;2.80;1.50;;;8.70;99.90;;;;;;5029675;28;20454;-70
2023/01/09 12:46:37;;;;;;;1.70;1.27;;;8.60;99.90;;;;;;5030061;28;21695;-70
2023/01/09 12:49:18;;;;;;;1.40;1.30;;;8.60;99.90;;;;;;5031105;28;20896;-71
2023/01/09 12:51:50;;;;;;;2.13;1.63;;;8.50;99.90;;;;;;5030312;28;20474;-70
2023/01/09 12:54:23;;;;;;;1.77;1.50;;;8.40;99.90;;;;;;5029465;28;20453;-71
2023/01/09 12:56:55;;;;;;;2.60;1.33;;;8.40;99.90;;;;;;5029826;28;20537;-71
2023/01/09 12:59:30;;;;;;;2.07;1.30;;;8.30;99.90;;;;;;5030899;28;20474;-71
2023/01/09 13:02:06;;;;;;;1.47;1.23;;;8.40;99.90;;;;;;5029749;28;20548;-71
2023/01/09 13:04:35;;;;;;;1.30;1.10;;;8.40;99.90;;;;;;5029964;28;20963;-70
2023/01/09 13:07:05;;;;;;;1.20;1.10;;;8.40;99.90;;;;;;5028099;28;20511;-70
2023/01/09 13:09:39;;;;;;;3.13;1.37;;;8.50;99.90;;;;;;5025327;28;20535;-71
2023/01/09 13:12:12;;;;;;;1.73;1.27;;;8.70;99.90;;;;;;5030059;28;20462;-70
2023/01/09 13:14:47;;;;;;;1.70;1.30;;;8.70;99.90;;;;;;5029430;28;20457;-70
2023/01/09 13:17:19;;;;;;;1.30;1.20;;;8.70;99.90;;;;;;5030184;28;20460;-70
2023/01/09 13:19:46;;;;;;;3.97;1.20;;;8.70;99.90;;;;;;5029718;28;20949;-70
2023/01/09 13:22:16;;;;;;;1.50;1.10;;;8.70;99.90;;;;;;5029670;28;20457;-70
2023/01/09 13:25:06;;;;;;;3.93;1.40;;;8.60;99.90;;;;;;5029963;28;20493;-70
2023/01/09 13:27:39;;;;;;;2.33;1.60;;;8.50;99.90;;;;;;5026391;28;20460;-70
2023/01/09 13:30:17;;;;;;;2.27;1.40;;;8.40;99.90;;;;;;5029133;28;20497;-70